Frenchburg, Kentucky
Current Conditions -  °F | °C
As of 12:50 AM on Sunday 23 Nov 2014 (Local Time) from KSYM Reporting Station
Overcast Overcast  
Wind Chill: 46°   Ceiling: 8500
Heat Index: 48°   Visibility: 10mi
Dew Point: 30°   Wind: 6mph
Humidity: 50%   Direction: 160°SSE
Pressure: 30.12"   Gusts: NA
Location:  37.95°N, 83.63°W
Report Text: KSYM 230550Z AUTO 16005KT 10SM OVC085 09/M01 A3012 RMK AO2
Loading
Personal Weather Stations






























Interactive Weather Map New forecast layout! Learn more

10-Day Weather Forecast

Advertisements
Track Severe Weather on mobile